Foneswood, Virginia
Current Conditions -  °F | °C
As of 11:55 AM on Thursday 30 Oct 2014 (Local Time) from KXSA Reporting Station
Overcast Overcast  
Wind Chill: 59°   Ceiling: 6500
Heat Index: 59°   Visibility: 10mi
Dew Point: 35°   Wind: 8mph
Humidity: 42%   Direction: 10°N
Pressure: 30.08"   Gusts: NA
Location:  38.1°N, 76.9°W
Report Text: KXSA 301555Z AUTO 01007KT 10SM OVC065 15/02 A3008 RMK AO2 T01480018
Loading
Personal Weather Stations






























Interactive Weather Map
Tropical Storm Tracking
New forecast layout! Learn more

10-Day Weather Forecast

Advertisements
Track Severe Weather on mobile